Time;durP1;ratioP1;P1;durP2;ratioP2;P2;SDS_P1;SDS_P2;PMS_P1;PMS_P2;Temp;Humidity;BMP_temperature;BMP_pressure;BME280_temperature;BME280_humidity;BME280_pressure;Samples;Min_cycle;Max_cycle;Signal;HPM_P1;HPM_P2
2022/08/01 00:00:11;;;;;;;1.88;1.30;;;21.80;99.90;;;;;;5031009;28;20048;-62
2022/08/01 00:02:40;;;;;;;4.30;1.25;;;21.80;99.90;;;;;;5031384;28;20018;-62
2022/08/01 00:05:08;;;;;;;3.75;1.42;;;21.80;99.90;;;;;;5032265;28;20364;-62
2022/08/01 00:07:34;;;;;;;6.68;1.30;;;21.80;99.90;;;;;;5033988;28;20151;-61
2022/08/01 00:10:00;;;;;;;6.35;1.58;;;21.80;99.90;;;;;;5032510;28;20033;-63
2022/08/01 00:12:26;;;;;;;2.22;1.45;;;21.80;99.90;;;;;;5029786;28;20030;-60
2022/08/01 00:14:51;;;;;;;6.88;1.42;;;21.80;99.90;;;;;;5030443;28;20697;-59
2022/08/01 00:17:17;;;;;;;4.22;1.40;;;21.80;99.90;;;;;;5028295;28;20034;-61
2022/08/01 00:19:42;;;;;;;2.85;1.38;;;21.70;99.90;;;;;;5028620;28;20444;-60
2022/08/01 00:22:08;;;;;;;2.78;1.50;;;21.70;99.90;;;;;;5031403;28;20030;-60
2022/08/01 00:24:33;;;;;;;3.03;1.20;;;21.70;99.90;;;;;;5028256;28;20022;-61
2022/08/01 00:26:59;;;;;;;4.70;1.80;;;21.70;99.90;;;;;;5031526;28;20397;-61
2022/08/01 00:29:25;;;;;;;3.15;1.40;;;21.70;99.90;;;;;;5029869;28;20047;-62
2022/08/01 00:31:50;;;;;;;3.17;1.88;;;21.70;99.90;;;;;;5029397;28;20515;-59
2022/08/01 00:34:16;;;;;;;4.03;1.67;;;21.70;99.90;;;;;;5032049;28;20033;-61
2022/08/01 00:36:42;;;;;;;6.45;1.55;;;21.70;99.90;;;;;;5030457;28;20100;-61
2022/08/01 00:39:08;;;;;;;2.40;1.80;;;21.70;99.90;;;;;;5030628;28;20038;-60
2022/08/01 00:41:33;;;;;;;3.15;1.70;;;21.70;99.90;;;;;;5030393;28;20406;-62
2022/08/01 00:44:04;;;;;;;3.90;1.70;;;21.70;99.90;;;;;;5031218;28;20029;-58
2022/08/01 00:46:29;;;;;;;1.90;1.52;;;21.70;99.90;;;;;;5028288;28;20186;-59
2022/08/01 00:48:55;;;;;;;3.03;1.70;;;21.70;99.90;;;;;;5028292;28;20470;-61
2022/08/01 00:51:22;;;;;;;3.83;1.92;;;21.70;99.90;;;;;;5032155;28;20026;-60
2022/08/01 00:53:47;;;;;;;6.28;1.80;;;21.70;99.90;;;;;;5029921;28;20094;-61
2022/08/01 00:56:13;;;;;;;1.83;1.60;;;21.60;99.90;;;;;;5030881;28;20029;-61
2022/08/01 00:58:39;;;;;;;5.18;1.90;;;21.50;99.90;;;;;;5029201;28;20040;-61
2022/08/01 01:01:04;;;;;;;1.50;1.40;;;21.50;99.90;;;;;;5027602;28;20030;-60
2022/08/01 01:03:31;;;;;;;2.78;1.98;;;21.50;99.90;;;;;;5027353;28;20096;-61
2022/08/01 01:06:11;;;;;;;2.55;1.60;;;21.40;99.90;;;;;;5029319;28;20022;-61
2022/08/01 01:08:51;;;;;;;3.13;1.50;;;21.30;99.90;;;;;;5029231;28;20027;-61
2022/08/01 01:11:31;;;;;;;6.93;2.63;;;21.30;99.90;;;;;;5011989;28;20021;-59
2022/08/01 01:14:16;;;;;;;3.60;1.90;;;21.20;99.90;;;;;;5028758;28;20101;-61
2022/08/01 01:16:43;;;;;;;2.45;1.75;;;21.20;99.90;;;;;;5027183;28;20034;-60
2022/08/01 01:19:16;;;;;;;4.03;1.75;;;21.10;99.90;;;;;;5027337;28;20038;-61
2022/08/01 01:22:14;;;;;;;3.28;1.90;;;21.10;99.90;;;;;;5029381;28;20021;-61
2022/08/01 01:24:54;;;;;;;4.50;1.85;;;20.90;99.90;;;;;;5025435;28;20754;-61
2022/08/01 01:27:43;;;;;;;4.78;2.08;;;20.90;99.90;;;;;;5029750;28;20056;-61
2022/08/01 01:30:08;;;;;;;3.08;2.30;;;20.90;99.90;;;;;;5026154;28;20068;-61
2022/08/01 01:32:47;;;;;;;3.60;2.28;;;20.90;99.90;;;;;;5029344;28;20060;-60
2022/08/01 01:35:20;;;;;;;4.05;2.22;;;20.90;99.90;;;;;;5028082;28;20125;-60
2022/08/01 01:37:49;;;;;;;3.58;2.30;;;20.80;99.90;;;;;;5029866;28;20036;-61
2022/08/01 01:40:16;;;;;;;2.28;2.08;;;20.70;99.90;;;;;;5028448;28;20025;-61
2022/08/01 01:42:42;;;;;;;4.72;1.98;;;20.70;99.90;;;;;;5029610;28;20697;-61
2022/08/01 01:45:08;;;;;;;2.42;2.20;;;20.70;99.90;;;;;;5025004;28;20017;-61
2022/08/01 01:47:36;;;;;;;4.50;2.25;;;20.70;99.90;;;;;;5030300;28;20029;-61
2022/08/01 01:50:03;;;;;;;3.72;2.28;;;20.80;99.90;;;;;;5029782;28;20040;-61
2022/08/01 01:52:31;;;;;;;4.63;2.42;;;20.80;99.90;;;;;;5029403;28;20025;-61
2022/08/01 01:54:58;;;;;;;4.45;2.58;;;20.70;99.90;;;;;;5028700;28;20063;-59
2022/08/01 01:57:24;;;;;;;2.25;1.67;;;20.80;99.90;;;;;;5025989;28;20060;-60
2022/08/01 01:59:52;;;;;;;6.80;2.50;;;20.70;99.90;;;;;;5030006;28;20030;-60
2022/08/01 02:02:19;;;;;;;6.68;2.30;;;20.70;99.90;;;;;;5029873;28;20029;-61
2022/08/01 02:04:46;;;;;;;3.67;2.42;;;20.80;99.90;;;;;;5028513;28;20013;-61
2022/08/01 02:07:16;;;;;;;5.50;2.30;;;20.80;99.90;;;;;;5029738;28;20080;-61
2022/08/01 02:09:43;;;;;;;3.85;2.50;;;20.80;99.90;;;;;;5028342;28;20037;-59
2022/08/01 02:12:11;;;;;;;5.88;2.22;;;20.80;99.90;;;;;;5028462;28;20060;-60
2022/08/01 02:14:39;;;;;;;3.95;2.42;;;20.70;99.90;;;;;;5028688;28;20087;-61
2022/08/01 02:17:05;;;;;;;3.20;2.17;;;20.70;99.90;;;;;;5028711;28;20064;-61
2022/08/01 02:19:32;;;;;;;4.63;2.13;;;20.60;99.90;;;;;;5029766;28;20072;-61
2022/08/01 02:22:07;;;;;;;7.88;2.50;;;20.70;99.90;;;;;;5028459;28;20116;-61
2022/08/01 02:24:44;;;;;;;5.72;2.70;;;20.60;99.90;;;;;;5026434;28;20037;-61
2022/08/01 02:27:17;;;;;;;5.40;2.45;;;20.60;99.90;;;;;;5021325;28;20396;-61
2022/08/01 02:29:58;;;;;;;2.90;2.15;;;20.60;99.90;;;;;;5027085;28;20026;-61
2022/08/01 02:32:30;;;;;;;6.38;2.47;;;20.60;99.90;;;;;;5028905;28;20029;-61
2022/08/01 02:34:59;;;;;;;6.97;2.60;;;20.60;99.90;;;;;;5029913;28;20128;-60
2022/08/01 02:37:28;;;;;;;2.55;2.17;;;20.60;99.90;;;;;;5029658;28;20079;-61
2022/08/01 02:39:54;;;;;;;8.95;2.90;;;20.50;99.90;;;;;;5028176;28;20593;-61
2022/08/01 02:42:23;;;;;;;3.63;2.40;;;20.60;99.90;;;;;;5029120;28;20033;-61
2022/08/01 02:44:51;;;;;;;6.90;2.40;;;20.60;99.90;;;;;;5029813;28;20022;-61
2022/08/01 02:47:20;;;;;;;4.93;2.97;;;20.60;99.90;;;;;;5028825;28;20761;-61
2022/08/01 02:49:48;;;;;;;7.80;2.50;;;20.60;99.90;;;;;;5028590;28;20029;-60
2022/08/01 02:52:17;;;;;;;4.05;2.40;;;20.70;99.90;;;;;;5029393;28;20036;-60
2022/08/01 02:54:45;;;;;;;6.45;2.70;;;20.60;99.90;;;;;;5028231;28;20026;-59
2022/08/01 02:57:12;;;;;;;2.45;2.08;;;20.60;99.90;;;;;;5029297;28;20060;-61
2022/08/01 02:59:39;;;;;;;4.68;2.85;;;20.70;99.90;;;;;;5027913;28;20099;-61
2022/08/01 03:02:07;;;;;;;3.50;2.92;;;20.60;99.90;;;;;;5028879;28;20037;-61
2022/08/01 03:04:38;;;;;;;6.75;3.17;;;20.60;99.90;;;;;;5027242;28;20029;-61
2022/08/01 03:07:07;;;;;;;7.80;3.22;;;20.60;99.90;;;;;;5029074;28;20096;-61
2022/08/01 03:09:37;;;;;;;4.00;2.95;;;20.60;99.90;;;;;;5027269;28;20026;-60
2022/08/01 03:12:06;;;;;;;5.18;2.83;;;20.60;99.90;;;;;;5028573;28;20033;-60
2022/08/01 03:14:36;;;;;;;5.72;2.90;;;20.60;99.90;;;;;;5025112;28;20025;-60
2022/08/01 03:17:03;;;;;;;6.38;3.05;;;20.50;99.90;;;;;;5027343;28;20071;-61
2022/08/01 03:19:31;;;;;;;8.63;2.90;;;20.60;99.90;;;;;;5035472;28;20030;-60
2022/08/01 03:21:58;;;;;;;6.32;3.38;;;20.50;99.90;;;;;;5032199;28;20030;-60
2022/08/01 03:24:25;;;;;;;7.15;3.13;;;20.50;99.90;;;;;;5028710;28;20017;-60
2022/08/01 03:26:51;;;;;;;5.25;3.80;;;20.60;99.90;;;;;;5029663;28;20431;-60
2022/08/01 03:29:21;;;;;;;5.97;3.70;;;20.50;99.90;;;;;;5031904;28;20064;-60
2022/08/01 03:31:48;;;;;;;6.50;3.50;;;20.50;99.90;;;;;;5031442;28;20045;-61
2022/08/01 03:34:14;;;;;;;7.03;3.67;;;20.50;99.90;;;;;;5032434;28;20088;-61
2022/08/01 03:37:12;;;;;;;10.55;3.90;;;20.50;99.90;;;;;;5031940;28;20802;-61
2022/08/01 03:40:03;;;;;;;8.63;4.00;;;20.50;99.90;;;;;;5025120;28;20096;-61
2022/08/01 03:42:36;;;;;;;7.13;4.13;;;20.40;99.90;;;;;;5013641;28;20125;-61
2022/08/01 03:45:06;;;;;;;6.68;3.30;;;20.50;99.90;;;;;;5029940;28;20021;-61
2022/08/01 03:47:34;;;;;;;6.57;3.60;;;20.40;99.90;;;;;;5031879;28;20029;-60
2022/08/01 03:50:05;;;;;;;9.23;3.58;;;20.50;99.90;;;;;;5031628;28;20029;-60
2022/08/01 03:52:33;;;;;;;8.05;3.85;;;20.40;99.90;;;;;;5031239;28;20030;-61
2022/08/01 03:55:04;;;;;;;10.20;3.97;;;20.50;99.90;;;;;;5031079;28;20045;-61
2022/08/01 03:57:31;;;;;;;7.68;3.58;;;20.50;99.90;;;;;;5031604;28;20025;-60
2022/08/01 03:59:59;;;;;;;10.18;3.90;;;20.50;99.90;;;;;;5029992;28;20026;-61
2022/08/01 04:02:26;;;;;;;5.15;4.15;;;20.50;99.90;;;;;;5028863;28;20113;-60
2022/08/01 04:04:52;;;;;;;6.60;4.00;;;20.50;99.90;;;;;;5031850;28;20069;-60
2022/08/01 04:07:29;;;;;;;8.95;4.38;;;20.50;99.90;;;;;;5032298;28;20053;-61
2022/08/01 04:09:55;;;;;;;7.38;4.15;;;20.40;99.90;;;;;;5030348;28;20026;-61
2022/08/01 04:12:21;;;;;;;17.27;6.60;;;20.50;99.90;;;;;;5031706;28;20038;-61
2022/08/01 04:14:48;;;;;;;9.80;4.75;;;20.50;99.90;;;;;;5030933;28;20484;-61
2022/08/01 04:17:14;;;;;;;11.93;5.43;;;20.50;99.90;;;;;;5031128;28;20028;-61
2022/08/01 04:19:41;;;;;;;12.68;5.40;;;20.50;99.90;;;;;;5031159;28;20025;-61
2022/08/01 04:22:08;;;;;;;8.85;5.00;;;20.40;99.90;;;;;;5031447;28;20846;-61
2022/08/01 04:24:36;;;;;;;9.32;5.22;;;20.50;99.90;;;;;;5030694;28;20034;-61
2022/08/01 04:27:04;;;;;;;8.05;5.07;;;20.50;99.90;;;;;;5018429;28;20602;-61
2022/08/01 04:29:30;;;;;;;9.65;5.78;;;20.50;99.90;;;;;;5029209;28;20052;-61
2022/08/01 04:31:59;;;;;;;11.25;7.30;;;20.50;99.90;;;;;;5030768;28;20116;-62
2022/08/01 04:34:27;;;;;;;10.68;6.10;;;20.50;99.90;;;;;;5030903;28;20064;-61
2022/08/01 04:36:55;;;;;;;9.63;6.32;;;20.40;99.90;;;;;;5029919;28;20025;-61
2022/08/01 04:39:27;;;;;;;11.50;6.18;;;20.50;99.90;;;;;;5029723;28;20021;-61
2022/08/01 04:41:56;;;;;;;11.45;6.13;;;20.50;99.90;;;;;;5029245;28;20430;-61
2022/08/01 04:44:22;;;;;;;12.07;6.60;;;20.50;99.90;;;;;;5031011;28;20018;-61
2022/08/01 04:46:49;;;;;;;12.60;6.85;;;20.50;99.90;;;;;;5029919;28;20116;-61
2022/08/01 04:49:16;;;;;;;9.93;6.53;;;20.50;99.90;;;;;;5030172;28;20018;-61
2022/08/01 04:51:59;;;;;;;12.70;7.68;;;20.50;99.90;;;;;;5030481;28;20383;-61
2022/08/01 04:54:26;;;;;;;11.35;7.22;;;20.50;99.90;;;;;;5030953;28;20107;-61
2022/08/01 04:56:54;;;;;;;12.00;7.85;;;20.50;99.90;;;;;;5028004;28;20036;-61
2022/08/01 05:02:04;;;;;;;17.77;8.95;;;20.50;99.90;;;;;;5025092;28;20036;-61
2022/08/01 05:04:29;;;;;;;17.35;8.88;;;20.50;99.90;;;;;;5030609;28;20021;-61
2022/08/01 05:06:55;;;;;;;18.10;9.60;;;20.50;99.90;;;;;;5028938;28;20029;-60
2022/08/01 05:09:20;;;;;;;16.23;8.70;;;20.50;99.90;;;;;;5030047;28;20415;-61
2022/08/01 05:11:46;;;;;;;16.70;7.95;;;20.60;99.90;;;;;;5029417;28;20037;-62
2022/08/01 05:14:11;;;;;;;16.48;9.20;;;20.50;99.90;;;;;;5030451;28;20021;-62
2022/08/01 05:16:37;;;;;;;19.15;11.27;;;20.50;99.90;;;;;;5028359;28;20041;-61
2022/08/01 05:19:02;;;;;;;15.02;9.25;;;20.60;99.90;;;;;;5030581;28;20029;-62
2022/08/01 05:21:28;;;;;;;14.85;9.05;;;20.60;99.90;;;;;;5030124;28;20036;-61
2022/08/01 05:23:53;;;;;;;14.73;9.05;;;20.60;99.90;;;;;;5028657;28;20045;-62
2022/08/01 05:26:19;;;;;;;14.80;9.63;;;20.60;99.90;;;;;;5029099;28;20083;-62
2022/08/01 05:28:45;;;;;;;20.83;11.48;;;20.60;99.90;;;;;;5013270;28;20056;-61
2022/08/01 05:31:11;;;;;;;21.88;10.35;;;20.50;99.90;;;;;;5030016;28;20021;-61
2022/08/01 05:33:36;;;;;;;17.25;11.32;;;20.60;99.90;;;;;;5030398;28;20399;-62
2022/08/01 05:36:02;;;;;;;20.48;11.45;;;20.60;99.90;;;;;;5025602;28;20032;-61
2022/08/01 05:38:28;;;;;;;21.10;11.93;;;20.60;99.90;;;;;;5029769;28;20026;-62
2022/08/01 05:40:53;;;;;;;21.65;11.20;;;20.60;99.90;;;;;;5028919;28;20033;-61
2022/08/01 05:43:19;;;;;;;14.70;10.52;;;20.60;99.90;;;;;;5030154;28;20056;-62
2022/08/01 05:45:45;;;;;;;16.88;11.85;;;20.70;99.90;;;;;;5027875;28;20030;-61
2022/08/01 05:48:11;;;;;;;17.75;10.70;;;20.70;99.90;;;;;;5030468;28;20045;-62
2022/08/01 05:50:37;;;;;;;21.88;12.10;;;20.70;99.90;;;;;;5029985;28;20526;-62
2022/08/01 05:53:02;;;;;;;15.82;10.75;;;20.70;99.90;;;;;;5029267;28;20037;-60
2022/08/01 05:55:28;;;;;;;23.27;12.65;;;20.70;99.90;;;;;;5029335;28;20079;-61
2022/08/01 05:57:53;;;;;;;27.00;13.07;;;20.80;99.90;;;;;;5028715;28;20450;-61
2022/08/01 06:00:19;;;;;;;20.45;12.38;;;20.80;99.90;;;;;;5028756;28;20025;-62
2022/08/01 06:02:44;;;;;;;23.48;13.48;;;20.70;99.90;;;;;;5029422;28;20030;-62
2022/08/01 06:05:10;;;;;;;24.35;14.20;;;20.60;99.90;;;;;;5028218;28;20045;-62
2022/08/01 06:07:36;;;;;;;24.67;14.40;;;20.60;99.90;;;;;;5027073;28;20415;-62
2022/08/01 06:10:02;;;;;;;26.95;14.43;;;20.60;99.90;;;;;;5030052;28;20491;-61
2022/08/01 06:12:28;;;;;;;20.08;13.30;;;20.60;99.90;;;;;;5028805;28;20030;-62
2022/08/01 06:14:53;;;;;;;30.77;13.88;;;20.60;99.90;;;;;;5030548;28;20036;-62
2022/08/01 06:17:19;;;;;;;21.73;12.68;;;20.70;99.90;;;;;;5027436;28;20091;-61
2022/08/01 06:19:44;;;;;;;25.85;14.68;;;20.80;99.90;;;;;;5029734;28;20038;-61
2022/08/01 06:22:10;;;;;;;20.02;12.63;;;20.80;99.90;;;;;;5029481;28;20052;-61
2022/08/01 06:24:35;;;;;;;21.15;13.55;;;20.90;99.90;;;;;;5029786;28;20030;-61
2022/08/01 06:27:02;;;;;;;62.03;19.02;;;21.00;99.90;;;;;;5027636;28;20115;-61
2022/08/01 06:29:30;;;;;;;20.65;13.07;;;21.10;99.90;;;;;;5031450;28;20025;-60
2022/08/01 06:31:56;;;;;;;23.45;13.02;;;21.10;99.90;;;;;;5029958;28;20407;-57
2022/08/01 06:34:22;;;;;;;27.58;12.73;;;21.10;99.90;;;;;;5029508;28;20029;-62
2022/08/01 06:36:48;;;;;;;19.83;12.60;;;21.10;99.90;;;;;;5025468;28;20116;-60
2022/08/01 06:39:13;;;;;;;15.88;11.30;;;21.20;99.90;;;;;;5029339;28;20132;-61
2022/08/01 06:41:41;;;;;;;23.67;13.05;;;21.30;99.90;;;;;;5027983;28;20033;-60
2022/08/01 06:44:07;;;;;;;19.30;11.48;;;21.40;99.90;;;;;;5029370;28;20028;-59
2022/08/01 06:46:32;;;;;;;15.85;11.77;;;21.40;99.90;;;;;;5027408;28;20104;-61
2022/08/01 06:48:58;;;;;;;19.20;10.18;;;21.50;99.90;;;;;;5029503;28;20038;-61
2022/08/01 06:51:25;;;;;;;16.90;11.07;;;21.50;99.90;;;;;;5046015;22;20041;-59
2022/08/01 06:53:51;;;;;;;17.65;11.48;;;21.50;99.90;;;;;;5007717;28;20088;-59
2022/08/01 06:56:16;;;;;;;21.77;11.15;;;21.40;99.90;;;;;;5028370;28;20427;-59
2022/08/01 06:58:42;;;;;;;15.98;10.00;;;21.40;99.90;;;;;;5029723;28;20029;-59
2022/08/01 07:01:07;;;;;;;17.33;10.23;;;21.50;99.90;;;;;;5022720;28;20044;-59
2022/08/01 07:03:37;;;;;;;17.50;9.90;;;21.50;99.90;;;;;;5032516;28;20495;-60
2022/08/01 07:06:03;;;;;;;15.68;10.30;;;21.50;99.90;;;;;;5030508;28;20029;-60
2022/08/01 07:08:28;;;;;;;20.52;10.57;;;21.60;99.90;;;;;;5034086;28;20034;-60
2022/08/01 07:10:55;;;;;;;16.45;11.68;;;21.60;99.90;;;;;;5012898;28;20021;-59
2022/08/01 07:13:24;;;;;;;20.38;11.32;;;21.70;99.90;;;;;;5032173;28;20040;-60
2022/08/01 07:15:50;;;;;;;17.52;11.68;;;21.70;99.90;;;;;;5031046;28;20060;-59
2022/08/01 07:18:16;;;;;;;20.25;11.50;;;21.70;99.90;;;;;;5011318;28;20041;-59
2022/08/01 07:20:41;;;;;;;20.50;11.60;;;21.70;99.90;;;;;;5031667;28;20030;-59
2022/08/01 07:23:07;;;;;;;19.42;12.45;;;21.60;99.90;;;;;;5029795;28;20029;-56
2022/08/01 07:25:33;;;;;;;23.90;11.80;;;21.60;99.90;;;;;;5033985;28;20430;-58
2022/08/01 07:27:58;;;;;;;20.10;12.75;;;21.50;99.90;;;;;;5032072;28;20111;-59
2022/08/01 07:30:24;;;;;;;16.42;11.20;;;21.60;99.90;;;;;;5033716;28;20025;-60
2022/08/01 07:32:49;;;;;;;18.98;10.82;;;21.60;99.90;;;;;;4997521;28;20052;-59
2022/08/01 07:35:15;;;;;;;14.43;10.93;;;21.70;99.90;;;;;;5030129;28;20025;-60
2022/08/01 07:37:40;;;;;;;14.70;10.80;;;21.80;99.90;;;;;;5031481;28;20036;-61
2022/08/01 07:40:06;;;;;;;14.95;10.27;;;21.80;99.90;;;;;;5031712;28;20108;-61
2022/08/01 07:42:32;;;;;;;18.13;10.75;;;21.90;99.90;;;;;;5026671;28;20225;-61
2022/08/01 07:44:58;;;;;;;14.02;11.27;;;21.90;99.90;;;;;;4997292;28;20462;-61
2022/08/01 07:47:27;;;;;;;14.75;10.50;;;21.90;99.90;;;;;;5030259;28;20543;-62
2022/08/01 07:50:00;;;;;;;15.07;10.02;;;21.90;99.90;;;;;;5032223;28;20483;-61
2022/08/01 07:52:26;;;;;;;15.57;11.00;;;22.00;99.90;;;;;;5031701;28;20034;-62
2022/08/01 07:54:52;;;;;;;15.48;10.27;;;22.00;99.90;;;;;;5008240;28;20442;-60
2022/08/01 07:57:18;;;;;;;15.63;10.95;;;21.90;99.90;;;;;;5011245;28;20063;-61
2022/08/01 07:59:43;;;;;;;13.02;10.32;;;21.90;99.90;;;;;;5029928;28;20061;-62
2022/08/01 08:02:09;;;;;;;19.40;10.63;;;21.90;99.90;;;;;;5032229;28;20029;-61
2022/08/01 08:04:34;;;;;;;17.10;10.77;;;22.00;99.90;;;;;;5033450;28;20028;-60
2022/08/01 08:07:00;;;;;;;16.50;12.07;;;22.10;99.90;;;;;;5032477;28;20029;-62
2022/08/01 08:09:26;;;;;;;14.98;11.52;;;22.20;99.90;;;;;;5033154;28;20545;-60
2022/08/01 08:11:51;;;;;;;15.32;12.15;;;22.20;99.90;;;;;;5031585;28;20039;-61
2022/08/01 08:14:17;;;;;;;22.48;14.55;;;22.30;99.90;;;;;;5033027;28;20651;-61
2022/08/01 08:16:43;;;;;;;19.92;13.88;;;22.40;99.90;;;;;;5031952;28;20083;-62
2022/08/01 08:19:09;;;;;;;18.10;12.57;;;22.30;99.90;;;;;;5033450;28;20025;-61
2022/08/01 08:21:36;;;;;;;20.63;13.70;;;22.30;99.90;;;;;;5032323;28;20036;-61
2022/08/01 08:24:19;;;;;;;20.35;13.90;;;22.30;99.90;;;;;;5031094;28;20041;-62
2022/08/01 08:26:49;;;;;;;12.93;11.02;;;22.30;99.90;;;;;;5031192;28;20029;-62
2022/08/01 08:29:16;;;;;;;14.35;11.90;;;22.50;99.90;;;;;;5033074;28;20037;-59
2022/08/01 08:31:42;;;;;;;17.20;11.80;;;22.70;99.90;;;;;;5032795;28;20021;-59
2022/08/01 08:34:08;;;;;;;17.23;12.40;;;22.70;99.90;;;;;;5033063;28;20032;-61
2022/08/01 08:36:33;;;;;;;15.23;11.75;;;22.60;99.90;;;;;;5032446;28;20155;-61
2022/08/01 08:39:02;;;;;;;16.10;10.90;;;22.70;99.90;;;;;;5032657;28;20057;-60
2022/08/01 08:41:32;;;;;;;19.23;12.00;;;22.80;99.90;;;;;;5032405;28;20028;-61
2022/08/01 08:43:59;;;;;;;17.23;11.07;;;22.80;99.90;;;;;;5031048;28;20056;-61
2022/08/01 08:46:27;;;;;;;13.18;10.18;;;22.90;99.90;;;;;;5032854;28;20021;-60
2022/08/01 08:48:53;;;;;;;16.40;10.00;;;22.90;99.90;;;;;;5031991;28;20074;-61
2022/08/01 08:51:19;;;;;;;12.93;8.80;;;23.00;99.90;;;;;;5032321;28;20047;-60
2022/08/01 08:53:46;;;;;;;10.80;8.75;;;23.00;99.90;;;;;;5032198;28;20020;-60
2022/08/01 08:56:13;;;;;;;11.18;8.07;;;22.70;99.90;;;;;;5027432;28;20097;-60
2022/08/01 08:58:40;;;;;;;9.65;7.68;;;22.80;99.90;;;;;;5011835;28;20021;-61
2022/08/01 09:01:08;;;;;;;10.90;8.02;;;22.80;99.90;;;;;;5031687;28;20033;-60
2022/08/01 09:03:34;;;;;;;16.15;8.35;;;22.80;99.90;;;;;;5032227;28;20047;-59
2022/08/01 09:06:00;;;;;;;12.27;8.60;;;22.90;99.90;;;;;;5032532;28;20067;-60
2022/08/01 09:08:25;;;;;;;13.55;9.23;;;22.90;99.90;;;;;;5024567;28;20026;-60
2022/08/01 09:10:51;;;;;;;15.68;10.40;;;22.90;99.90;;;;;;5030177;28;20562;-62
2022/08/01 09:13:17;;;;;;;14.50;9.80;;;22.90;99.90;;;;;;5030795;28;20029;-59
2022/08/01 09:15:50;;;;;;;9.88;8.00;;;22.90;99.90;;;;;;5032507;28;20025;-61
2022/08/01 09:18:35;;;;;;;11.55;7.63;;;23.00;99.90;;;;;;5026925;28;20022;-61
2022/08/01 09:21:09;;;;;;;12.10;8.38;;;23.20;99.90;;;;;;5024028;28;20025;-61
2022/08/01 09:23:41;;;;;;;9.93;7.47;;;23.30;99.90;;;;;;5026067;28;20037;-60
2022/08/01 09:26:08;;;;;;;11.07;6.72;;;23.30;99.90;;;;;;5022346;28;20645;-61
2022/08/01 09:28:34;;;;;;;9.18;6.68;;;23.30;99.90;;;;;;5022603;28;20017;-61
2022/08/01 09:31:06;;;;;;;10.38;7.22;;;23.30;99.90;;;;;;5028130;28;20035;-61
2022/08/01 09:33:58;;;;;;;11.13;7.25;;;23.40;99.90;;;;;;5025644;28;20021;-62
2022/08/01 09:36:42;;;;;;;11.57;7.20;;;23.40;99.90;;;;;;5026776;28;20040;-61
2022/08/01 09:39:12;;;;;;;10.32;8.13;;;23.30;99.90;;;;;;5028357;28;20112;-61
2022/08/01 09:41:38;;;;;;;15.20;8.40;;;23.20;99.90;;;;;;5030360;28;20051;-61
2022/08/01 09:44:04;;;;;;;10.80;7.88;;;23.00;99.90;;;;;;5027481;28;20543;-61
2022/08/01 09:46:30;;;;;;;13.90;8.65;;;23.00;99.90;;;;;;5030157;28;20048;-62
2022/08/01 09:48:59;;;;;;;10.20;8.20;;;23.10;99.90;;;;;;5024068;28;20108;-61
2022/08/01 09:51:35;;;;;;;11.32;8.20;;;23.10;99.90;;;;;;5025886;28;20400;-60
2022/08/01 09:54:05;;;;;;;12.23;7.28;;;23.20;99.90;;;;;;5025174;28;20183;-61
2022/08/01 09:56:39;;;;;;;12.88;7.88;;;23.40;99.90;;;;;;5024403;28;20486;-62
2022/08/01 09:59:05;;;;;;;11.65;7.63;;;23.70;99.90;;;;;;5027294;28;20031;-61
2022/08/01 10:01:43;;;;;;;10.88;6.43;;;23.90;99.90;;;;;;5025854;28;20022;-61
2022/08/01 10:04:10;;;;;;;9.15;6.55;;;24.10;99.90;;;;;;5027737;28;20060;-61
2022/08/01 10:06:37;;;;;;;10.15;6.25;;;24.00;99.90;;;;;;5026462;28;20025;-62
2022/08/01 10:09:03;;;;;;;9.30;7.20;;;23.90;99.90;;;;;;5028772;28;20061;-61
2022/08/01 10:11:29;;;;;;;8.65;6.50;;;24.00;99.90;;;;;;5025158;28;20052;-61
2022/08/01 10:13:58;;;;;;;8.70;6.80;;;24.10;99.90;;;;;;5026637;28;20087;-61
2022/08/01 10:16:26;;;;;;;8.45;6.50;;;24.20;99.90;;;;;;5020378;28;20031;-61
2022/08/01 10:18:53;;;;;;;8.75;6.53;;;24.50;99.90;;;;;;5030120;28;20566;-62
2022/08/01 10:21:20;;;;;;;8.48;6.20;;;24.40;99.90;;;;;;5026971;28;20029;-61
2022/08/01 10:23:46;;;;;;;5.93;5.32;;;24.40;99.90;;;;;;5029386;28;20361;-62
2022/08/01 10:26:13;;;;;;;8.50;5.63;;;24.50;99.90;;;;;;5027955;28;20033;-62
2022/08/01 10:28:40;;;;;;;9.90;6.03;;;24.60;99.90;;;;;;5018329;28;20018;-61
2022/08/01 10:31:07;;;;;;;9.13;5.38;;;24.50;99.90;;;;;;5024469;28;20399;-62
2022/08/01 10:33:35;;;;;;;7.53;6.78;;;24.50;99.90;;;;;;5022366;28;20030;-61
2022/08/01 10:36:01;;;;;;;9.85;6.05;;;24.40;99.90;;;;;;5024517;28;20026;-61
2022/08/01 10:38:27;;;;;;;6.78;5.47;;;24.30;99.90;;;;;;5022611;28;20047;-59
2022/08/01 10:40:54;;;;;;;7.35;6.10;;;24.30;99.90;;;;;;5027758;28;20034;-61
2022/08/01 10:43:20;;;;;;;7.18;6.47;;;24.40;99.90;;;;;;5023217;28;20037;-60
2022/08/01 10:45:45;;;;;;;10.57;7.00;;;24.80;99.90;;;;;;5033684;28;20028;-61
2022/08/01 10:48:29;;;;;;;9.68;6.38;;;24.60;99.90;;;;;;5023658;28;20029;-62
2022/08/01 10:50:58;;;;;;;7.43;6.53;;;24.60;99.90;;;;;;5026216;28;20025;-60
2022/08/01 10:53:25;;;;;;;7.20;6.03;;;24.50;99.90;;;;;;5025682;28;20503;-61
2022/08/01 10:55:58;;;;;;;7.50;6.68;;;24.40;99.90;;;;;;5025617;28;20037;-61
2022/08/01 10:58:43;;;;;;;11.73;7.22;;;24.30;99.90;;;;;;5026279;28;20032;-61
2022/08/01 11:01:22;;;;;;;10.52;7.25;;;24.20;99.90;;;;;;5031124;28;20108;-61
2022/08/01 11:04:14;;;;;;;10.05;6.75;;;24.10;99.90;;;;;;5028565;28;20033;-61
2022/08/01 11:06:53;;;;;;;8.60;6.45;;;24.10;99.90;;;;;;5026271;28;20044;-61
2022/08/01 11:09:31;;;;;;;9.93;5.95;;;24.40;99.90;;;;;;5025281;28;20030;-62
2022/08/01 11:11:57;;;;;;;6.72;6.03;;;24.80;99.90;;;;;;5028965;28;20044;-61
2022/08/01 11:14:23;;;;;;;7.30;5.25;;;25.40;99.90;;;;;;5031294;28;20030;-62
2022/08/01 11:16:49;;;;;;;8.02;5.55;;;25.50;99.90;;;;;;5028020;28;20060;-60
2022/08/01 11:19:14;;;;;;;6.47;4.43;;;25.50;99.90;;;;;;5031514;28;20091;-61
2022/08/01 11:21:52;;;;;;;8.00;5.60;;;25.40;99.90;;;;;;5022424;28;20068;-61
2022/08/01 11:24:50;;;;;;;6.60;5.50;;;25.20;99.90;;;;;;5023849;28;20034;-61
2022/08/01 11:27:21;;;;;;;8.20;5.75;;;25.10;99.90;;;;;;5028247;28;20091;-62
2022/08/01 11:30:09;;;;;;;5.20;4.72;;;25.50;99.90;;;;;;5029483;28;20029;-61
2022/08/01 11:32:47;;;;;;;8.18;4.70;;;25.60;99.90;;;;;;5030628;28;20037;-61
2022/08/01 11:35:13;;;;;;;8.15;5.18;;;25.90;99.90;;;;;;5029430;28;20061;-61
2022/08/01 11:37:39;;;;;;;9.60;5.28;;;25.90;99.90;;;;;;5029827;28;20080;-59
2022/08/01 11:40:18;;;;;;;8.20;5.07;;;26.20;99.90;;;;;;5024708;28;20564;-61
2022/08/01 11:42:44;;;;;;;7.00;4.40;;;26.50;99.90;;;;;;5027994;28;20053;-62
2022/08/01 11:45:09;;;;;;;4.68;3.75;;;26.70;99.90;;;;;;5027804;28;20041;-62
2022/08/01 11:47:51;;;;;;;5.88;3.80;;;26.50;99.90;;;;;;5028205;28;20063;-61
2022/08/01 11:50:33;;;;;;;5.65;4.40;;;26.20;99.90;;;;;;5030872;28;20035;-61
2022/08/01 11:53:01;;;;;;;8.18;4.65;;;25.90;99.90;;;;;;5003238;28;20037;-62
2022/08/01 11:55:28;;;;;;;6.63;4.70;;;25.70;99.90;;;;;;5030603;28;20403;-61
2022/08/01 11:58:06;;;;;;;6.68;4.90;;;25.50;99.90;;;;;;5027703;28;20033;-62
2022/08/01 12:00:32;;;;;;;8.27;4.38;;;25.40;99.90;;;;;;5030827;28;20033;-62
2022/08/01 12:03:03;;;;;;;4.25;3.85;;;25.50;99.90;;;;;;5029561;28;20431;-62
2022/08/01 12:05:31;;;;;;;5.00;4.03;;;25.50;99.90;;;;;;5031406;28;20036;-62
2022/08/01 12:07:57;;;;;;;9.02;3.72;;;25.60;99.90;;;;;;5028999;28;20133;-61
2022/08/01 12:10:25;;;;;;;4.88;3.97;;;26.00;99.90;;;;;;5027988;28;20034;-62
2022/08/01 12:13:00;;;;;;;4.53;4.00;;;26.50;99.90;;;;;;5030838;28;20095;-62
2022/08/01 12:15:34;;;;;;;4.43;3.00;;;26.60;99.90;;;;;;5026408;28;20036;-61
2022/08/01 12:18:02;;;;;;;6.85;2.95;;;26.60;99.90;;;;;;5024669;28;20038;-62
2022/08/01 12:20:33;;;;;;;3.58;2.88;;;26.40;99.90;;;;;;5026591;28;20393;-61
2022/08/01 12:23:07;;;;;;;3.22;2.78;;;26.20;99.90;;;;;;5026003;28;20506;-61
2022/08/01 12:25:34;;;;;;;3.45;3.15;;;26.40;99.90;;;;;;5023612;28;20030;-62
2022/08/01 12:28:02;;;;;;;6.03;3.72;;;26.40;99.90;;;;;;5029803;28;20029;-62
2022/08/01 12:30:30;;;;;;;5.70;3.63;;;26.20;99.90;;;;;;5022016;28;20443;-62
2022/08/01 12:32:56;;;;;;;4.88;3.55;;;25.70;99.90;;;;;;5032611;28;20033;-62
2022/08/01 12:35:27;;;;;;;5.53;4.32;;;25.50;99.90;;;;;;5029156;28;20372;-61
2022/08/01 12:37:53;;;;;;;9.18;3.63;;;25.30;99.90;;;;;;5028831;28;20036;-61
2022/08/01 12:40:25;;;;;;;5.78;3.60;;;25.20;99.90;;;;;;5030739;28;20052;-62
2022/08/01 12:43:00;;;;;;;6.95;3.88;;;25.30;99.90;;;;;;5028460;28;20117;-60
2022/08/01 12:45:39;;;;;;;7.28;4.20;;;25.20;99.90;;;;;;5020930;28;20037;-61
2022/08/01 12:48:11;;;;;;;5.10;4.55;;;25.30;99.90;;;;;;5030600;28;20613;-60
2022/08/01 12:50:38;;;;;;;5.95;4.55;;;25.50;99.90;;;;;;5032772;28;20460;-62